Time;durP1;ratioP1;P1;durP2;ratioP2;P2;SDS_P1;SDS_P2;PMS_P1;PMS_P2;Temp;Humidity;BMP_temperature;BMP_pressure;BME280_temperature;BME280_humidity;BME280_pressure;Samples;Min_cycle;Max_cycle;Signal;HPM_P1;HPM_P2
2021/12/22 00:02:33;;;;;;;12.23;7.72;;;;;;;;;;4916812;29;20908;-71
2021/12/22 00:05:44;;;;;;;14.97;8.20;;;;;;;;;;4917408;29;20196;-71
2021/12/22 00:08:48;;;;;;;13.40;7.97;;;;;;;;;;4929574;29;20662;-71
2021/12/22 00:11:52;;;;;;;13.55;7.90;;;;;;;;;;4898095;29;20200;-71
2021/12/22 00:14:56;;;;;;;16.33;8.27;;;;;;;;;;4898060;29;20193;-71
2021/12/22 00:18:01;;;;;;;16.75;8.23;;;;;;;;;;4897847;29;20247;-71
2021/12/22 00:21:05;;;;;;;15.10;7.10;;;;;;;;;;4922364;29;20231;-71
2021/12/22 00:24:09;;;;;;;11.45;6.47;;;;;;;;;;4917929;29;20185;-71
2021/12/22 00:27:13;;;;;;;12.23;7.43;;;;;;;;;;4935410;29;20203;-71
2021/12/22 00:30:18;;;;;;;13.23;7.53;;;;;;;;;;4928451;29;20203;-71
2021/12/22 00:33:22;;;;;;;12.00;7.50;;;;;;;;;;4916997;29;20216;-71
2021/12/22 00:36:26;;;;;;;11.50;7.20;;;;;;;;;;4927071;29;20204;-71
2021/12/22 00:39:30;;;;;;;10.73;6.57;;;;;;;;;;4934557;29;20589;-71
2021/12/22 00:42:34;;;;;;;10.85;7.47;;;;;;;;;;4898312;29;20192;-71
2021/12/22 00:45:39;;;;;;;11.77;7.93;;;;;;;;;;4900636;29;20194;-71
2021/12/22 00:48:43;;;;;;;12.93;7.03;;;;;;;;;;4920512;29;20229;-71
2021/12/22 00:51:46;;;;;;;13.43;7.75;;;;;;;;;;4920716;29;20192;-71
2021/12/22 00:54:51;;;;;;;10.68;6.90;;;;;;;;;;4908976;29;20209;-71
2021/12/22 00:57:55;;;;;;;12.88;8.00;;;;;;;;;;4908522;29;20768;-71
2021/12/22 01:00:59;;;;;;;12.38;8.18;;;;;;;;;;4935306;29;20209;-71
2021/12/22 01:04:04;;;;;;;15.52;7.93;;;;;;;;;;4928495;29;20570;-71
2021/12/22 01:07:08;;;;;;;12.50;7.43;;;;;;;;;;4920170;29;20188;-71
2021/12/22 01:10:14;;;;;;;12.15;7.15;;;;;;;;;;4927711;29;20708;-71
2021/12/22 01:13:18;;;;;;;12.63;6.97;;;;;;;;;;4939294;29;20196;-71
2021/12/22 01:16:23;;;;;;;12.68;7.28;;;;;;;;;;4938009;29;20193;-71
2021/12/22 01:19:38;;;;;;;11.10;7.28;;;;;;;;;;4907173;29;20240;-71
2021/12/22 01:25:48;;;;;;;11.18;7.15;;;;;;;;;;4939130;29;20552;-71
2021/12/22 01:28:52;;;;;;;12.25;7.55;;;;;;;;;;4938765;29;20224;-71
2021/12/22 01:31:57;;;;;;;11.52;7.00;;;;;;;;;;4929759;29;20567;-71
2021/12/22 01:35:06;;;;;;;11.48;7.65;;;;;;;;;;4938824;29;20192;-71
2021/12/22 01:38:10;;;;;;;10.55;7.25;;;;;;;;;;4937710;29;20604;-71
2021/12/22 01:41:14;;;;;;;11.23;6.88;;;;;;;;;;4922098;29;20681;-71
2021/12/22 01:45:00;;;;;;;11.00;6.83;;;;;;;;;;4919977;29;20207;-71
2021/12/22 01:51:38;;;;;;;14.45;7.30;;;;;;;;;;4935629;29;20204;-71
2021/12/22 01:54:49;;;;;;;11.00;7.82;;;;;;;;;;4936966;29;20211;-71
2021/12/22 01:57:54;;;;;;;13.68;7.75;;;;;;;;;;4938331;29;20614;-71
2021/12/22 02:01:00;;;;;;;15.30;7.30;;;;;;;;;;4935490;29;20227;-71
2021/12/22 02:04:10;;;;;;;11.23;7.22;;;;;;;;;;4902132;29;20677;-71
2021/12/22 02:07:15;;;;;;;11.30;6.68;;;;;;;;;;4919014;29;20221;-71
2021/12/22 02:10:36;;;;;;;11.07;7.13;;;;;;;;;;4931268;29;20223;-71
2021/12/22 02:13:44;;;;;;;14.23;7.53;;;;;;;;;;4927027;29;20207;-71
2021/12/22 02:16:48;;;;;;;13.82;7.85;;;;;;;;;;4917984;29;20216;-71
2021/12/22 02:19:52;;;;;;;11.60;7.25;;;;;;;;;;4927124;29;20220;-71
2021/12/22 02:22:58;;;;;;;10.45;6.88;;;;;;;;;;4937788;29;20204;-71
2021/12/22 02:26:12;;;;;;;12.93;7.72;;;;;;;;;;4938006;29;20547;-71
2021/12/22 02:29:22;;;;;;;11.68;7.65;;;;;;;;;;4922105;29;20593;-71
2021/12/22 02:35:43;;;;;;;11.50;7.38;;;;;;;;;;4937086;29;20211;-71
2021/12/22 02:38:53;;;;;;;11.30;7.50;;;;;;;;;;4899766;29;20233;-71
2021/12/22 02:41:56;;;;;;;12.80;7.35;;;;;;;;;;4918747;29;20542;-71
2021/12/22 02:45:08;;;;;;;12.88;7.47;;;;;;;;;;4918428;29;20578;-71
2021/12/22 02:48:12;;;;;;;12.68;6.93;;;;;;;;;;4918547;29;20223;-71
2021/12/22 02:51:17;;;;;;;12.45;7.65;;;;;;;;;;4936377;29;20573;-71
2021/12/22 02:54:26;;;;;;;10.48;7.35;;;;;;;;;;4899660;29;20196;-71
2021/12/22 02:57:45;;;;;;;15.52;8.30;;;;;;;;;;4899210;29;20214;-71
2021/12/22 03:04:18;;;;;;;13.10;7.45;;;;;;;;;;4910524;29;20676;-71
2021/12/22 03:07:27;;;;;;;13.02;7.40;;;;;;;;;;4935462;29;20656;-71
2021/12/22 03:10:31;;;;;;;13.93;8.18;;;;;;;;;;4915786;29;20224;-71
2021/12/22 03:13:35;;;;;;;14.05;9.07;;;;;;;;;;4918178;29;20550;-71
2021/12/22 03:16:42;;;;;;;13.40;8.45;;;;;;;;;;4918131;29;20545;-71
2021/12/22 03:19:46;;;;;;;15.82;8.52;;;;;;;;;;4926818;29;20201;-71
2021/12/22 03:22:51;;;;;;;16.23;9.18;;;;;;;;;;4936710;29;20199;-71
2021/12/22 03:25:57;;;;;;;14.90;9.02;;;;;;;;;;4936958;29;20199;-71
2021/12/22 03:29:01;;;;;;;14.73;8.75;;;;;;;;;;4925790;29;20736;-71
2021/12/22 03:32:08;;;;;;;14.80;8.95;;;;;;;;;;4934862;29;20204;-71
2021/12/22 03:35:17;;;;;;;13.00;8.10;;;;;;;;;;4935861;29;20190;-71
2021/12/22 03:38:21;;;;;;;13.88;7.82;;;;;;;;;;4923308;29;20262;-74
2021/12/22 03:41:26;;;;;;;14.00;8.50;;;;;;;;;;4936404;29;20199;-71
2021/12/22 03:44:30;;;;;;;16.88;9.70;;;;;;;;;;4935067;29;20214;-71
2021/12/22 03:47:34;;;;;;;17.55;9.02;;;;;;;;;;4935969;29;20227;-71
2021/12/22 03:50:38;;;;;;;13.27;8.18;;;;;;;;;;4917378;29;20185;-71
2021/12/22 03:53:42;;;;;;;17.75;9.20;;;;;;;;;;4917029;29;20557;-71
2021/12/22 03:56:46;;;;;;;13.82;8.57;;;;;;;;;;4917476;29;20202;-71
2021/12/22 03:59:50;;;;;;;14.82;8.23;;;;;;;;;;4919352;29;20201;-71
2021/12/22 04:02:55;;;;;;;14.55;8.45;;;;;;;;;;4934441;29;20196;-71
2021/12/22 04:05:59;;;;;;;14.45;8.50;;;;;;;;;;4898140;29;20205;-71
2021/12/22 04:09:03;;;;;;;13.25;7.70;;;;;;;;;;4918385;29;20736;-71
2021/12/22 04:12:08;;;;;;;12.93;8.20;;;;;;;;;;4936490;29;20199;-71
2021/12/22 04:15:12;;;;;;;13.10;7.93;;;;;;;;;;4935894;29;20195;-71
2021/12/22 04:18:17;;;;;;;14.07;8.02;;;;;;;;;;4931083;29;20224;-71
2021/12/22 04:21:21;;;;;;;15.30;8.15;;;;;;;;;;4897996;29;20197;-71
2021/12/22 04:24:25;;;;;;;12.93;8.32;;;;;;;;;;4907137;29;20197;-71
2021/12/22 04:27:29;;;;;;;12.02;7.15;;;;;;;;;;4916749;29;20198;-71
2021/12/22 04:30:45;;;;;;;15.30;8.25;;;;;;;;;;4917112;29;20683;-71
2021/12/22 04:33:49;;;;;;;15.65;8.52;;;;;;;;;;4915897;29;20211;-71
2021/12/22 04:36:53;;;;;;;14.07;8.20;;;;;;;;;;4927378;29;20211;-71
2021/12/22 04:39:57;;;;;;;12.27;7.75;;;;;;;;;;4918659;29;20711;-71
2021/12/22 04:43:02;;;;;;;12.63;8.25;;;;;;;;;;4916635;29;20220;-71
2021/12/22 04:46:06;;;;;;;12.32;7.97;;;;;;;;;;4916959;29;20185;-71
2021/12/22 04:49:11;;;;;;;13.20;7.88;;;;;;;;;;4916781;29;20220;-71
2021/12/22 04:52:19;;;;;;;18.00;9.15;;;;;;;;;;4897779;29;20201;-71
2021/12/22 04:55:25;;;;;;;12.80;7.72;;;;;;;;;;4897974;29;20213;-71
2021/12/22 04:58:29;;;;;;;13.05;7.93;;;;;;;;;;4914688;29;20239;-71
2021/12/22 05:01:33;;;;;;;16.50;9.15;;;;;;;;;;4934999;29;20545;-71
2021/12/22 05:04:37;;;;;;;16.88;9.35;;;;;;;;;;4934948;29;20192;-71
2021/12/22 05:07:43;;;;;;;15.25;9.15;;;;;;;;;;4933792;29;20731;-71
2021/12/22 05:10:47;;;;;;;18.52;9.65;;;;;;;;;;4958333;23;20263;-89
2021/12/22 05:13:52;;;;;;;17.30;9.90;;;;;;;;;;4913358;29;20576;-89
2021/12/22 05:17:00;;;;;;;16.15;9.40;;;;;;;;;;4915605;29;20222;-90
2021/12/22 05:20:06;;;;;;;18.27;9.27;;;;;;;;;;4894518;29;20593;-89
2021/12/22 05:23:10;;;;;;;15.73;9.48;;;;;;;;;;4894168;29;20217;-89
2021/12/22 05:26:14;;;;;;;13.57;9.27;;;;;;;;;;4905728;29;20208;-89
2021/12/22 05:29:18;;;;;;;13.15;8.48;;;;;;;;;;4905224;29;20553;-89
2021/12/22 05:32:29;;;;;;;16.58;9.60;;;;;;;;;;4898160;29;20593;-89
2021/12/22 05:35:34;;;;;;;15.25;8.98;;;;;;;;;;4916194;29;20227;-89
2021/12/22 05:38:38;;;;;;;16.15;8.70;;;;;;;;;;4897911;29;20223;-89
2021/12/22 05:41:42;;;;;;;13.88;8.38;;;;;;;;;;4919534;29;20209;-89
2021/12/22 05:44:47;;;;;;;14.75;8.82;;;;;;;;;;4897756;29;20301;-89
2021/12/22 05:47:52;;;;;;;13.63;8.70;;;;;;;;;;4923143;29;20196;-89
2021/12/22 05:50:58;;;;;;;13.40;8.68;;;;;;;;;;4937986;29;20227;-89
2021/12/22 05:54:03;;;;;;;16.58;9.48;;;;;;;;;;4938200;29;20219;-89
2021/12/22 05:57:07;;;;;;;16.45;9.25;;;;;;;;;;4918366;29;20209;-89
2021/12/22 06:00:11;;;;;;;15.27;9.25;;;;;;;;;;4918807;29;20609;-89
2021/12/22 06:03:18;;;;;;;17.27;10.02;;;;;;;;;;4908111;29;20209;-89
2021/12/22 06:06:22;;;;;;;14.07;8.77;;;;;;;;;;4897860;29;20211;-89
2021/12/22 06:09:26;;;;;;;15.13;9.02;;;;;;;;;;4909244;29;20189;-89
2021/12/22 06:12:31;;;;;;;15.50;8.55;;;;;;;;;;4929214;29;20202;-89
2021/12/22 06:15:37;;;;;;;16.63;9.40;;;;;;;;;;4926065;29;20684;-89
2021/12/22 06:18:44;;;;;;;13.93;8.98;;;;;;;;;;4926861;29;20228;-89
2021/12/22 06:21:48;;;;;;;14.48;8.60;;;;;;;;;;4908369;29;20210;-89
2021/12/22 06:24:52;;;;;;;16.05;9.32;;;;;;;;;;4897117;29;20198;-90
2021/12/22 06:27:56;;;;;;;14.98;8.27;;;;;;;;;;4897047;29;20192;-89
2021/12/22 06:31:01;;;;;;;15.77;8.55;;;;;;;;;;4897003;29;20228;-89
2021/12/22 06:34:05;;;;;;;14.95;9.15;;;;;;;;;;4907741;29;20208;-90
2021/12/22 06:37:11;;;;;;;15.60;8.90;;;;;;;;;;4907798;29;20212;-89
2021/12/22 06:40:16;;;;;;;14.07;8.52;;;;;;;;;;4921817;29;20244;-89
2021/12/22 06:43:20;;;;;;;13.90;9.38;;;;;;;;;;4937375;29;20669;-89
2021/12/22 06:46:24;;;;;;;15.63;9.75;;;;;;;;;;4919791;29;20212;-89
2021/12/22 06:49:28;;;;;;;14.25;8.65;;;;;;;;;;4906037;29;20713;-90
2021/12/22 06:52:33;;;;;;;17.15;10.15;;;;;;;;;;4901696;29;20222;-90
2021/12/22 06:55:37;;;;;;;15.45;9.45;;;;;;;;;;4897707;29;20196;-89
2021/12/22 06:58:41;;;;;;;17.33;9.95;;;;;;;;;;4906973;29;20708;-89
2021/12/22 07:01:46;;;;;;;15.00;9.38;;;;;;;;;;4914258;29;20192;-88
2021/12/22 07:04:50;;;;;;;14.35;8.63;;;;;;;;;;4913483;29;20195;-88
2021/12/22 07:07:54;;;;;;;17.65;9.70;;;;;;;;;;4908507;29;20209;-88
2021/12/22 07:10:58;;;;;;;16.98;10.02;;;;;;;;;;4906811;29;20244;-89
2021/12/22 07:14:03;;;;;;;15.55;9.38;;;;;;;;;;4904412;29;20217;-89
2021/12/22 07:17:09;;;;;;;14.73;9.68;;;;;;;;;;4904870;29;20201;-88
2021/12/22 07:20:15;;;;;;;16.23;9.35;;;;;;;;;;4897498;29;20232;-91
2021/12/22 07:23:19;;;;;;;17.65;9.93;;;;;;;;;;4906962;29;20215;-90
2021/12/22 07:26:24;;;;;;;107.72;18.00;;;;;;;;;;4896865;29;20205;-91
2021/12/22 07:29:41;;;;;;;29.90;12.48;;;;;;;;;;4897703;29;20196;-88
2021/12/22 07:32:56;;;;;;;23.00;12.07;;;;;;;;;;4921639;29;20676;-89
2021/12/22 07:36:07;;;;;;;19.35;10.35;;;;;;;;;;4926325;29;20202;-90
2021/12/22 07:39:11;;;;;;;18.17;10.63;;;;;;;;;;4920496;29;20227;-89
2021/12/22 07:42:15;;;;;;;18.40;10.57;;;;;;;;;;4911305;29;20199;-90
2021/12/22 07:45:19;;;;;;;17.75;10.07;;;;;;;;;;4903423;29;20207;-90
2021/12/22 07:48:24;;;;;;;19.08;11.23;;;;;;;;;;4901641;29;20211;-90
2021/12/22 07:51:36;;;;;;;23.58;11.63;;;;;;;;;;4914818;29;20227;-91
2021/12/22 07:54:40;;;;;;;23.08;12.18;;;;;;;;;;4914350;29;20200;-89
2021/12/22 07:57:44;;;;;;;21.55;11.75;;;;;;;;;;4916787;29;20211;-88
2021/12/22 08:00:48;;;;;;;20.80;10.90;;;;;;;;;;4895247;29;20602;-88
2021/12/22 08:03:52;;;;;;;25.20;13.60;;;;;;;;;;4915580;29;20215;-88
2021/12/22 08:07:02;;;;;;;24.48;13.73;;;;;;;;;;4907010;29;20708;-90
2021/12/22 08:10:08;;;;;;;26.38;12.57;;;;;;;;;;4909253;29;20235;-89
2021/12/22 08:13:12;;;;;;;28.60;13.63;;;;;;;;;;4914146;29;20199;-90
2021/12/22 08:16:16;;;;;;;22.75;13.82;;;;;;;;;;4924888;29;20191;-90
2021/12/22 08:19:20;;;;;;;38.38;18.95;;;;;;;;;;4914044;29;20234;-90
2021/12/22 08:22:25;;;;;;;40.25;21.42;;;;;;;;;;4913814;29;20211;-89
2021/12/22 08:25:30;;;;;;;26.80;15.27;;;;;;;;;;4913988;29;20195;-89
2021/12/22 08:28:34;;;;;;;33.20;16.97;;;;;;;;;;4924893;29;20564;-90
2021/12/22 08:31:38;;;;;;;25.37;14.40;;;;;;;;;;4914103;29;20552;-90
2021/12/22 08:34:42;;;;;;;18.83;11.80;;;;;;;;;;4924789;29;20922;-90
2021/12/22 08:41:10;;;;;;;35.80;17.40;;;;;;;;;;4924580;29;20631;-89
2021/12/22 08:44:18;;;;;;;37.37;16.03;;;;;;;;;;4924464;29;20568;-90
2021/12/22 08:47:22;;;;;;;36.10;15.03;;;;;;;;;;4924812;29;20552;-90
2021/12/22 08:50:27;;;;;;;23.07;13.73;;;;;;;;;;4924387;29;20709;-90
2021/12/22 08:53:31;;;;;;;33.10;18.70;;;;;;;;;;4913970;29;20960;-90
2021/12/22 08:56:36;;;;;;;31.23;16.30;;;;;;;;;;4924648;29;20556;-90
2021/12/22 08:59:41;;;;;;;30.70;17.47;;;;;;;;;;4913219;29;20675;-90
2021/12/22 09:02:45;;;;;;;38.83;19.47;;;;;;;;;;4913719;29;20555;-90
2021/12/22 09:05:49;;;;;;;33.10;18.57;;;;;;;;;;4913868;29;20612;-85
2021/12/22 09:08:53;;;;;;;27.30;15.33;;;;;;;;;;4909779;29;20557;-86
2021/12/22 09:12:00;;;;;;;33.70;17.70;;;;;;;;;;4927663;29;20588;-89
2021/12/22 09:15:08;;;;;;;33.03;17.07;;;;;;;;;;4919813;29;20568;-90
2021/12/22 09:18:19;;;;;;;28.33;15.00;;;;;;;;;;4909455;29;20552;-90
2021/12/22 09:21:23;;;;;;;25.20;14.73;;;;;;;;;;4897901;29;20643;-90
2021/12/22 09:24:27;;;;;;;28.67;14.47;;;;;;;;;;4916959;29;20608;-90
2021/12/22 09:27:33;;;;;;;21.60;13.50;;;;;;;;;;4902700;29;20607;-91
2021/12/22 09:30:38;;;;;;;25.37;14.53;;;;;;;;;;4919614;29;21001;-88
2021/12/22 09:33:44;;;;;;;23.17;13.50;;;;;;;;;;4908871;29;20596;-88
2021/12/22 09:36:50;;;;;;;24.97;12.80;;;;;;;;;;4896399;29;20600;-90
2021/12/22 09:40:15;;;;;;;18.40;12.37;;;;;;;;;;4899592;29;20749;-89
2021/12/22 09:43:19;;;;;;;28.33;15.30;;;;;;;;;;4913105;29;21009;-89
2021/12/22 09:46:24;;;;;;;25.53;15.53;;;;;;;;;;4935748;29;20614;-88
2021/12/22 09:49:46;;;;;;;28.27;16.10;;;;;;;;;;4929433;29;20588;-89
2021/12/22 09:52:50;;;;;;;24.60;14.73;;;;;;;;;;4919550;29;20553;-89
2021/12/22 09:55:58;;;;;;;23.93;15.70;;;;;;;;;;4913195;29;20977;-88
2021/12/22 09:59:04;;;;;;;25.80;16.37;;;;;;;;;;4919087;29;21117;-88
2021/12/22 10:02:10;;;;;;;21.13;14.63;;;;;;;;;;4921154;29;20957;-88
2021/12/22 10:05:14;;;;;;;22.47;13.93;;;;;;;;;;4916956;29;20596;-88
2021/12/22 10:08:21;;;;;;;22.03;14.57;;;;;;;;;;4907275;29;20608;-89
2021/12/22 10:11:25;;;;;;;22.13;14.27;;;;;;;;;;4914161;29;20646;-89
2021/12/22 10:14:30;;;;;;;19.90;14.20;;;;;;;;;;4907880;29;20632;-89
2021/12/22 10:17:44;;;;;;;21.50;13.53;;;;;;;;;;4907912;29;20604;-89
2021/12/22 10:20:50;;;;;;;21.10;14.27;;;;;;;;;;4896970;29;20672;-89
2021/12/22 10:23:55;;;;;;;23.03;14.13;;;;;;;;;;4921068;29;20714;-88
2021/12/22 10:27:09;;;;;;;22.50;14.47;;;;;;;;;;4916315;29;20627;-87
2021/12/22 10:30:22;;;;;;;22.13;13.90;;;;;;;;;;4897000;29;21026;-89
2021/12/22 10:33:29;;;;;;;21.17;13.33;;;;;;;;;;4897149;29;20620;-90
2021/12/22 10:36:45;;;;;;;20.87;13.63;;;;;;;;;;4902652;29;21175;-89
2021/12/22 10:39:49;;;;;;;21.43;12.43;;;;;;;;;;4919406;29;20675;-89
2021/12/22 10:42:55;;;;;;;18.67;12.23;;;;;;;;;;4904746;29;20597;-90
2021/12/22 10:46:04;;;;;;;18.93;12.80;;;;;;;;;;4896343;29;20640;-89
2021/12/22 10:49:20;;;;;;;19.60;12.67;;;;;;;;;;4921458;29;20625;-89
2021/12/22 10:52:24;;;;;;;17.47;12.37;;;;;;;;;;4911050;29;20607;-89
2021/12/22 10:55:37;;;;;;;16.30;11.37;;;;;;;;;;4934301;29;20604;-90
2021/12/22 10:58:41;;;;;;;18.03;11.57;;;;;;;;;;4910188;29;20599;-89
2021/12/22 11:01:57;;;;;;;16.27;11.30;;;;;;;;;;4923978;29;20640;-89
2021/12/22 11:05:06;;;;;;;18.53;12.00;;;;;;;;;;4917766;29;20577;-89
2021/12/22 11:08:24;;;;;;;19.07;11.43;;;;;;;;;;4912032;29;20601;-89
2021/12/22 11:11:36;;;;;;;17.67;11.33;;;;;;;;;;4954733;23;21040;-84
2021/12/22 11:14:42;;;;;;;21.00;11.33;;;;;;;;;;4914855;29;20584;-84
2021/12/22 11:17:45;;;;;;;17.80;9.47;;;;;;;;;;4906120;29;20602;-84
2021/12/22 11:21:21;;;;;;;15.20;10.20;;;;;;;;;;4922980;29;20668;-85
2021/12/22 11:24:27;;;;;;;15.93;10.47;;;;;;;;;;4920549;29;20592;-84
2021/12/22 11:27:31;;;;;;;14.97;9.50;;;;;;;;;;4910636;29;20595;-84
2021/12/22 11:30:35;;;;;;;18.27;10.27;;;;;;;;;;4906533;29;20656;-84
2021/12/22 11:33:40;;;;;;;15.37;10.20;;;;;;;;;;4902546;29;20961;-84
2021/12/22 11:36:46;;;;;;;14.40;9.20;;;;;;;;;;4911402;29;20611;-84
2021/12/22 11:39:51;;;;;;;13.60;9.80;;;;;;;;;;4900497;29;20599;-84
2021/12/22 11:42:55;;;;;;;14.63;9.73;;;;;;;;;;4907010;29;20604;-84
2021/12/22 11:46:01;;;;;;;20.43;11.00;;;;;;;;;;4897277;29;20581;-84
2021/12/22 11:49:05;;;;;;;17.77;10.30;;;;;;;;;;4910747;29;21151;-84
2021/12/22 11:52:32;;;;;;;13.00;9.57;;;;;;;;;;4917310;29;20662;-84
2021/12/22 11:55:55;;;;;;;15.80;9.73;;;;;;;;;;4914527;29;20598;-84
2021/12/22 11:58:59;;;;;;;14.27;9.87;;;;;;;;;;4897543;29;21129;-84
2021/12/22 12:02:24;;;;;;;15.80;10.77;;;;;;;;;;4923991;29;20680;-84
2021/12/22 12:05:30;;;;;;;15.97;9.57;;;;;;;;;;4917594;29;20600;-84
2021/12/22 12:08:46;;;;;;;16.97;10.30;;;;;;;;;;4911899;29;20595;-84
2021/12/22 12:11:54;;;;;;;18.90;10.97;;;;;;;;;;4906531;29;20672;-84
2021/12/22 12:15:11;;;;;;;19.80;11.23;;;;;;;;;;4917822;29;20604;-84
2021/12/22 12:21:58;;;;;;;18.30;11.47;;;;;;;;;;4913602;29;20676;-84
2021/12/22 12:25:11;;;;;;;17.20;11.00;;;;;;;;;;4917563;29;20556;-84
2021/12/22 12:28:17;;;;;;;19.00;11.30;;;;;;;;;;4933466;29;20961;-84
2021/12/22 12:31:39;;;;;;;16.00;10.73;;;;;;;;;;4913545;29;20658;-84
2021/12/22 12:34:44;;;;;;;17.00;10.67;;;;;;;;;;4934459;29;20619;-84
2021/12/22 12:38:00;;;;;;;17.07;10.93;;;;;;;;;;4906026;29;20541;-84
2021/12/22 12:41:11;;;;;;;15.70;10.63;;;;;;;;;;4907433;29;20668;-84
2021/12/22 12:44:27;;;;;;;16.43;10.70;;;;;;;;;;4922898;29;20588;-84
2021/12/22 12:47:31;;;;;;;19.73;11.77;;;;;;;;;;4899753;29;20561;-83
2021/12/22 12:50:35;;;;;;;20.83;11.80;;;;;;;;;;4920648;29;20670;-84
2021/12/22 12:53:45;;;;;;;16.47;10.63;;;;;;;;;;4923892;29;20600;-85
2021/12/22 12:57:00;;;;;;;17.00;11.13;;;;;;;;;;4925763;29;20612;-85
2021/12/22 13:00:06;;;;;;;16.10;10.70;;;;;;;;;;4923683;29;21187;-83
2021/12/22 13:03:10;;;;;;;19.40;11.00;;;;;;;;;;4945386;29;20563;-84
2021/12/22 13:06:15;;;;;;;15.23;9.70;;;;;;;;;;4929155;29;20925;-84
2021/12/22 13:09:33;;;;;;;22.00;11.37;;;;;;;;;;4929114;29;20913;-84
2021/12/22 13:15:47;;;;;;;22.10;10.83;;;;;;;;;;4929197;29;20909;-84
2021/12/22 13:18:51;;;;;;;18.20;11.30;;;;;;;;;;4940227;29;20555;-84
2021/12/22 13:21:56;;;;;;;15.83;11.07;;;;;;;;;;4928677;29;20658;-84
2021/12/22 13:25:12;;;;;;;16.00;10.70;;;;;;;;;;4928078;29;20619;-84
2021/12/22 13:28:20;;;;;;;16.17;9.53;;;;;;;;;;4928797;29;20567;-84
2021/12/22 13:31:24;;;;;;;15.97;7.83;;;;;;;;;;4928622;29;20624;-84
2021/12/22 13:34:28;;;;;;;16.57;8.57;;;;;;;;;;4928233;29;20556;-84
2021/12/22 13:37:48;;;;;;;13.80;8.77;;;;;;;;;;4939821;29;20551;-84
2021/12/22 13:41:21;;;;;;;12.20;8.00;;;;;;;;;;4917471;29;20671;-84
2021/12/22 13:44:25;;;;;;;13.80;8.20;;;;;;;;;;4928807;29;20563;-84
2021/12/22 13:47:32;;;;;;;12.07;7.87;;;;;;;;;;4917977;29;20548;-84
2021/12/22 13:50:36;;;;;;;10.70;7.57;;;;;;;;;;4917198;29;20619;-84
2021/12/22 13:53:42;;;;;;;19.43;8.30;;;;;;;;;;4928822;29;20595;-84
2021/12/22 13:56:49;;;;;;;15.53;8.60;;;;;;;;;;4917194;29;20615;-84
2021/12/22 13:59:55;;;;;;;14.70;8.73;;;;;;;;;;4916581;29;20611;-84
2021/12/22 14:03:15;;;;;;;12.77;8.60;;;;;;;;;;4927108;29;20627;-84
2021/12/22 14:06:27;;;;;;;14.17;8.17;;;;;;;;;;4916494;29;20922;-84
2021/12/22 14:09:33;;;;;;;13.83;8.90;;;;;;;;;;4938354;29;20551;-84
2021/12/22 14:12:39;;;;;;;10.90;7.33;;;;;;;;;;4934953;29;20552;-84
2021/12/22 14:15:43;;;;;;;14.90;8.57;;;;;;;;;;4921795;29;20898;-86
2021/12/22 14:18:48;;;;;;;12.20;7.37;;;;;;;;;;4916113;29;20551;-85
2021/12/22 14:22:01;;;;;;;13.77;7.57;;;;;;;;;;4918046;29;20684;-84
2021/12/22 14:25:09;;;;;;;11.17;7.43;;;;;;;;;;4917086;29;20548;-84
2021/12/22 14:28:15;;;;;;;11.50;7.17;;;;;;;;;;4928693;29;20546;-84
2021/12/22 14:31:18;;;;;;;14.43;7.63;;;;;;;;;;4940147;29;20623;-84
2021/12/22 14:34:23;;;;;;;12.93;7.40;;;;;;;;;;4926723;29;20622;-84
2021/12/22 14:37:29;;;;;;;11.90;7.20;;;;;;;;;;4939783;29;20552;-84
2021/12/22 14:40:36;;;;;;;12.37;7.73;;;;;;;;;;4917142;29;20638;-84
2021/12/22 14:43:48;;;;;;;12.37;8.10;;;;;;;;;;4914446;29;20600;-84
2021/12/22 14:46:52;;;;;;;12.73;7.90;;;;;;;;;;4909561;29;20604;-83
2021/12/22 14:49:56;;;;;;;11.47;7.97;;;;;;;;;;4934604;29;20630;-84
2021/12/22 14:53:04;;;;;;;13.07;7.63;;;;;;;;;;4928381;29;20669;-84
2021/12/22 14:56:14;;;;;;;16.33;8.00;;;;;;;;;;4929022;29;20556;-84
2021/12/22 14:59:19;;;;;;;11.87;8.10;;;;;;;;;;4929570;29;20572;-84
2021/12/22 15:02:23;;;;;;;13.97;8.53;;;;;;;;;;4939885;29;20675;-84
2021/12/22 15:05:28;;;;;;;13.77;8.43;;;;;;;;;;4929588;29;20583;-83
2021/12/22 15:08:32;;;;;;;12.30;8.47;;;;;;;;;;4928181;29;20905;-84
2021/12/22 15:11:37;;;;;;;13.87;8.20;;;;;;;;;;4924105;29;20660;-84
2021/12/22 15:14:43;;;;;;;15.37;8.10;;;;;;;;;;4920766;29;20552;-84
2021/12/22 15:17:47;;;;;;;13.17;7.97;;;;;;;;;;4920278;29;20628;-84
2021/12/22 15:20:51;;;;;;;15.83;8.47;;;;;;;;;;4919715;29;21212;-84
2021/12/22 15:23:56;;;;;;;12.33;8.60;;;;;;;;;;4919630;29;20549;-84
2021/12/22 15:26:59;;;;;;;12.70;8.17;;;;;;;;;;4908768;29;20619;-84
2021/12/22 15:30:04;;;;;;;14.03;8.30;;;;;;;;;;4921995;29;20564;-84
2021/12/22 15:33:11;;;;;;;19.07;11.37;;;;;;;;;;4911273;29;20560;-84
2021/12/22 15:36:17;;;;;;;19.00;9.97;;;;;;;;;;4936871;29;20572;-84
2021/12/22 15:39:21;;;;;;;21.27;13.00;;;;;;;;;;4899007;29;20552;-84
2021/12/22 15:42:25;;;;;;;14.63;9.03;;;;;;;;;;4897679;29;20600;-83
2021/12/22 15:45:29;;;;;;;15.63;8.47;;;;;;;;;;4918991;29;20550;-83
2021/12/22 15:48:33;;;;;;;15.37;8.80;;;;;;;;;;4904009;29;20593;-83
2021/12/22 15:51:37;;;;;;;12.97;8.70;;;;;;;;;;4918548;29;20659;-84
2021/12/22 15:54:42;;;;;;;14.47;7.73;;;;;;;;;;4903829;29;21219;-84
2021/12/22 15:57:46;;;;;;;15.97;7.90;;;;;;;;;;4908382;29;20626;-85
2021/12/22 16:00:50;;;;;;;18.47;11.23;;;;;;;;;;4916347;29;20662;-84
2021/12/22 16:03:54;;;;;;;16.47;9.20;;;;;;;;;;4931861;29;20591;-84
2021/12/22 16:06:58;;;;;;;15.37;8.63;;;;;;;;;;4910944;29;20575;-84
2021/12/22 16:10:03;;;;;;;14.73;9.33;;;;;;;;;;4928845;29;20631;-84
2021/12/22 16:13:08;;;;;;;17.97;9.17;;;;;;;;;;4904756;29;20601;-84
2021/12/22 16:16:12;;;;;;;14.10;8.80;;;;;;;;;;4909713;29;20627;-83
2021/12/22 16:19:16;;;;;;;13.57;8.40;;;;;;;;;;4936147;29;20619;-83
2021/12/22 16:22:20;;;;;;;12.67;8.37;;;;;;;;;;4935436;29;20663;-84
2021/12/22 16:25:25;;;;;;;14.70;8.37;;;;;;;;;;4925960;29;20589;-84
2021/12/22 16:28:29;;;;;;;14.53;8.97;;;;;;;;;;4925852;29;21151;-83
2021/12/22 16:31:33;;;;;;;14.57;9.47;;;;;;;;;;4925273;29;20626;-83
2021/12/22 16:34:37;;;;;;;13.23;8.00;;;;;;;;;;4930914;29;20627;-83
2021/12/22 16:37:42;;;;;;;14.30;8.00;;;;;;;;;;4910260;29;20607;-84
2021/12/22 16:40:46;;;;;;;10.57;7.87;;;;;;;;;;4897265;29;20676;-84
2021/12/22 16:43:50;;;;;;;14.40;9.27;;;;;;;;;;4917588;29;20569;-83
2021/12/22 16:46:55;;;;;;;12.77;8.03;;;;;;;;;;4928846;29;20613;-83
2021/12/22 16:50:00;;;;;;;13.30;8.77;;;;;;;;;;4906672;29;20631;-83
2021/12/22 16:53:04;;;;;;;14.40;9.33;;;;;;;;;;4921668;29;20603;-83
2021/12/22 16:56:09;;;;;;;12.00;8.17;;;;;;;;;;4925124;29;20576;-83
2021/12/22 16:59:13;;;;;;;14.70;9.43;;;;;;;;;;4914175;29;20575;-83
2021/12/22 17:02:17;;;;;;;14.70;9.03;;;;;;;;;;4903703;29;20665;-82
2021/12/22 17:05:23;;;;;;;13.23;8.63;;;;;;;;;;4915080;29;20576;-83
2021/12/22 17:08:27;;;;;;;14.87;8.77;;;;;;;;;;4923259;29;20571;-83
2021/12/22 17:11:31;;;;;;;17.10;8.50;;;;;;;;;;4903667;29;20678;-83
2021/12/22 17:14:35;;;;;;;14.20;9.10;;;;;;;;;;4906706;29;20622;-83
2021/12/22 17:17:40;;;;;;;15.70;9.37;;;;;;;;;;4893572;29;20580;-83
2021/12/22 17:20:44;;;;;;;13.43;8.77;;;;;;;;;;4904037;29;20639;-83
2021/12/22 17:23:49;;;;;;;14.23;8.17;;;;;;;;;;4893046;29;20962;-83
2021/12/22 17:26:53;;;;;;;16.60;9.30;;;;;;;;;;4905013;29;20938;-83
2021/12/22 17:29:57;;;;;;;12.13;8.67;;;;;;;;;;4913258;29;20615;-85
2021/12/22 17:33:01;;;;;;;13.03;8.93;;;;;;;;;;4927657;29;20607;-83
2021/12/22 17:36:05;;;;;;;13.93;8.47;;;;;;;;;;4917036;29;20583;-84
2021/12/22 17:39:10;;;;;;;16.93;8.97;;;;;;;;;;4907320;29;20596;-83
2021/12/22 17:42:14;;;;;;;15.37;8.63;;;;;;;;;;4896417;29;20679;-83
2021/12/22 17:45:20;;;;;;;14.83;8.67;;;;;;;;;;4896117;29;20578;-83
2021/12/22 17:48:25;;;;;;;14.07;8.40;;;;;;;;;;4896558;29;20583;-82
2021/12/22 17:51:29;;;;;;;15.00;9.07;;;;;;;;;;4896001;29;20668;-83
2021/12/22 17:54:33;;;;;;;21.57;10.00;;;;;;;;;;4907810;29;20576;-83
2021/12/22 17:57:37;;;;;;;18.40;9.70;;;;;;;;;;4901110;29;20632;-84
2021/12/22 18:00:44;;;;;;;14.90;9.07;;;;;;;;;;4895586;29;21223;-84
2021/12/22 18:03:48;;;;;;;14.13;9.07;;;;;;;;;;4906176;29;20633;-83
2021/12/22 18:06:53;;;;;;;17.17;9.83;;;;;;;;;;4921548;29;20607;-84
2021/12/22 18:09:57;;;;;;;17.53;9.07;;;;;;;;;;4914127;29;20591;-83
2021/12/22 18:13:01;;;;;;;15.47;9.30;;;;;;;;;;4925230;29;20606;-83
2021/12/22 18:16:05;;;;;;;16.30;9.43;;;;;;;;;;4914311;29;20569;-83
2021/12/22 18:19:10;;;;;;;18.40;9.73;;;;;;;;;;4914080;29;20576;-83
2021/12/22 18:22:14;;;;;;;16.90;9.40;;;;;;;;;;4924663;29;20674;-83
2021/12/22 18:25:19;;;;;;;14.13;9.50;;;;;;;;;;4926494;29;20969;-84
2021/12/22 18:28:23;;;;;;;17.07;9.73;;;;;;;;;;4936537;29;20618;-84
2021/12/22 18:31:27;;;;;;;16.27;10.80;;;;;;;;;;4914597;29;20646;-83
2021/12/22 18:34:33;;;;;;;15.73;9.53;;;;;;;;;;4906589;29;20631;-83
2021/12/22 18:37:57;;;;;;;14.83;9.87;;;;;;;;;;4906461;29;20948;-83
2021/12/22 18:41:03;;;;;;;14.83;9.40;;;;;;;;;;4896856;29;20645;-84